createdAt,value
2019-01-30T00:01:12.127Z,10.53
2019-01-30T00:03:41.347Z,20.17
2019-01-30T00:06:10.182Z,15.37
2019-01-30T00:08:38.967Z,11.37
2019-01-30T00:11:07.807Z,14.50
2019-01-30T00:13:36.741Z,16.13
2019-01-30T00:16:06.539Z,21.53
2019-01-30T00:18:35.370Z,13.20
2019-01-30T00:21:04.659Z,9.47
2019-01-30T00:23:33.536Z,11.60
2019-01-30T00:26:02.337Z,14.77
2019-01-30T00:28:31.179Z,15.03
2019-01-30T00:31:00.063Z,13.27
2019-01-30T00:33:28.830Z,15.67
2019-01-30T00:35:57.718Z,13.53
2019-01-30T00:38:26.840Z,15.70
2019-01-30T00:40:55.701Z,11.00
2019-01-30T00:43:24.466Z,12.87
2019-01-30T00:45:53.352Z,12.90
2019-01-30T00:48:22.215Z,11.47
2019-01-30T00:50:51.071Z,19.83
2019-01-30T00:53:19.965Z,12.43
2019-01-30T00:55:48.805Z,8.90
2019-01-30T00:58:17.675Z,11.50
2019-01-30T01:00:46.625Z,10.30
2019-01-30T01:03:15.596Z,9.83
2019-01-30T01:05:44.534Z,12.73
2019-01-30T01:08:13.724Z,18.40
2019-01-30T01:10:42.688Z,16.33
2019-01-30T01:13:11.503Z,11.07
2019-01-30T01:15:40.286Z,13.00
2019-01-30T01:18:09.623Z,12.70
2019-01-30T01:20:38.464Z,12.40
2019-01-30T01:23:07.403Z,9.73
2019-01-30T01:25:36.246Z,13.37
2019-01-30T01:28:05.411Z,15.57
2019-01-30T01:30:34.280Z,10.87
2019-01-30T01:33:03.106Z,14.27
2019-01-30T01:35:31.878Z,8.30
2019-01-30T01:38:00.659Z,10.73
2019-01-30T01:40:29.618Z,14.80
2019-01-30T01:42:58.468Z,8.37
2019-01-30T01:45:27.712Z,13.10
2019-01-30T01:47:56.578Z,8.60
2019-01-30T01:50:25.371Z,8.77
2019-01-30T01:52:54.527Z,10.13
2019-01-30T01:55:23.419Z,14.23
2019-01-30T01:57:52.354Z,12.60
2019-01-30T02:00:21.766Z,9.83
2019-01-30T02:02:50.787Z,10.03
2019-01-30T02:05:21.178Z,10.90
2019-01-30T02:07:50.512Z,12.70
2019-01-30T02:10:21.086Z,8.00
2019-01-30T02:12:50.253Z,12.33
2019-01-30T02:15:20.790Z,7.50
2019-01-30T02:17:50.665Z,12.57
2019-01-30T02:20:28.017Z,9.07
2019-01-30T02:22:56.935Z,10.00
2019-01-30T02:25:25.850Z,12.13
2019-01-30T02:27:54.802Z,8.70
2019-01-30T02:30:25.582Z,9.50
2019-01-30T02:32:54.598Z,10.33
2019-01-30T02:35:23.684Z,10.00
2019-01-30T02:37:52.670Z,7.47
2019-01-30T02:40:23.691Z,7.77
2019-01-30T02:42:52.691Z,12.30
2019-01-30T02:45:23.324Z,13.73
2019-01-30T02:47:52.273Z,10.30
2019-01-30T02:50:21.864Z,7.10
2019-01-30T02:52:51.063Z,12.23
2019-01-30T02:55:20.343Z,12.20
2019-01-30T02:57:49.536Z,6.53
2019-01-30T03:00:20.666Z,9.53
2019-01-30T03:02:49.903Z,11.83
2019-01-30T03:05:18.849Z,12.83
2019-01-30T03:07:48.051Z,7.00
2019-01-30T03:10:17.976Z,9.40
2019-01-30T03:12:47.024Z,13.27
2019-01-30T03:15:16.152Z,8.90
2019-01-30T03:17:45.056Z,9.30
2019-01-30T03:20:16.725Z,20.20
2019-01-30T03:22:45.590Z,9.13
2019-01-30T03:25:14.799Z,13.57
2019-01-30T03:27:43.735Z,27.37
2019-01-30T03:30:15.398Z,6.80
2019-01-30T03:32:44.294Z,9.37
2019-01-30T03:35:13.355Z,11.53
2019-01-30T03:37:42.824Z,6.37
2019-01-30T03:40:13.894Z,7.73
2019-01-30T03:42:42.855Z,14.97
2019-01-30T03:45:12.578Z,10.33
2019-01-30T03:47:41.590Z,7.60
2019-01-30T03:50:11.395Z,6.93
2019-01-30T03:52:40.463Z,9.80
2019-01-30T03:55:10.464Z,9.03
2019-01-30T03:57:39.596Z,9.93
2019-01-30T04:00:12.279Z,11.17
2019-01-30T04:02:41.411Z,9.40
2019-01-30T04:05:10.405Z,6.47
2019-01-30T04:07:39.235Z,8.47
2019-01-30T04:10:09.329Z,11.57
2019-01-30T04:12:38.263Z,9.40
2019-01-30T04:15:07.620Z,8.40
2019-01-30T04:17:36.384Z,7.47
2019-01-30T04:20:06.830Z,7.03
2019-01-30T04:22:35.752Z,11.83
2019-01-30T04:25:05.756Z,13.20
2019-01-30T04:27:34.640Z,9.70
2019-01-30T04:30:03.996Z,9.03
2019-01-30T04:32:32.766Z,10.30
2019-01-30T04:35:01.631Z,5.80
2019-01-30T04:37:30.432Z,11.77
2019-01-30T04:39:59.285Z,9.90
2019-01-30T04:42:28.140Z,6.60
2019-01-30T04:44:57.379Z,7.07
2019-01-30T04:47:26.404Z,7.70
2019-01-30T04:49:56.264Z,7.93
2019-01-30T04:52:26.083Z,11.37
2019-01-30T04:54:54.956Z,9.67
2019-01-30T04:57:23.849Z,12.33
2019-01-30T04:59:52.734Z,8.10
2019-01-30T05:02:21.582Z,5.97
2019-01-30T05:04:50.642Z,6.60
2019-01-30T05:07:19.425Z,4.77
2019-01-30T05:09:48.224Z,9.93
2019-01-30T05:12:17.113Z,11.50
2019-01-30T05:14:45.935Z,6.83
2019-01-30T05:17:14.770Z,9.37
2019-01-30T05:19:43.546Z,11.30
2019-01-30T05:22:12.378Z,10.13
2019-01-30T05:24:41.246Z,14.63
2019-01-30T05:27:10.138Z,6.70
2019-01-30T05:29:39.048Z,8.90
2019-01-30T05:32:07.900Z,11.63
2019-01-30T05:34:36.676Z,9.50
2019-01-30T05:37:06.126Z,6.60
2019-01-30T05:39:35.014Z,9.60
2019-01-30T05:42:03.880Z,8.03
2019-01-30T05:44:32.774Z,7.43
2019-01-30T05:47:01.655Z,8.20
2019-01-30T05:49:31.463Z,24.77
2019-01-30T05:52:00.600Z,12.03
2019-01-30T05:54:31.075Z,7.23
2019-01-30T05:57:00.793Z,7.60
2019-01-30T05:59:30.011Z,12.03
2019-01-30T06:01:58.867Z,13.30
2019-01-30T06:04:28.282Z,9.57
2019-01-30T06:06:57.125Z,6.87
2019-01-30T06:09:26.643Z,10.30
2019-01-30T06:11:59.022Z,7.90
2019-01-30T06:14:27.818Z,10.90
2019-01-30T06:16:57.687Z,8.80
2019-01-30T06:19:29.473Z,10.70
2019-01-30T06:22:00.997Z,8.53
2019-01-30T06:24:30.020Z,10.17
2019-01-30T06:26:59.215Z,8.10
2019-01-30T06:29:28.252Z,8.60
2019-01-30T06:31:57.336Z,7.67
2019-01-30T06:34:26.476Z,8.97
2019-01-30T06:36:56.061Z,10.87
2019-01-30T06:39:24.926Z,10.17
2019-01-30T06:41:55.354Z,11.20
2019-01-30T06:44:24.311Z,14.60
2019-01-30T06:46:53.212Z,21.80
2019-01-30T06:49:22.334Z,16.00
2019-01-30T06:51:51.303Z,18.37
2019-01-30T06:54:20.411Z,21.03
2019-01-30T06:56:49.692Z,20.90
2019-01-30T06:59:18.538Z,23.03
2019-01-30T07:01:47.683Z,19.00
2019-01-30T07:04:17.343Z,20.43
2019-01-30T07:06:46.198Z,17.07
2019-01-30T07:09:15.160Z,23.67
2019-01-30T07:11:44.298Z,23.63
2019-01-30T07:14:13.092Z,22.83
2019-01-30T07:16:43.092Z,24.93
2019-01-30T07:19:12.012Z,22.30
2019-01-30T07:21:41.084Z,30.17
2019-01-30T07:26:45.048Z,16.53
2019-01-30T07:29:14.079Z,20.00
2019-01-30T07:31:42.983Z,16.13
2019-01-30T07:34:12.212Z,18.20
2019-01-30T07:36:41.206Z,22.50
2019-01-30T07:39:10.421Z,30.77
2019-01-30T07:41:39.692Z,25.00
2019-01-30T07:44:08.556Z,21.70
2019-01-30T07:46:37.634Z,19.90
2019-01-30T07:49:06.875Z,25.80
2019-01-30T07:51:35.847Z,20.43
2019-01-30T07:54:04.908Z,27.20
2019-01-30T07:56:34.015Z,21.07
2019-01-30T07:59:03.355Z,21.43
2019-01-30T08:01:32.491Z,25.90
2019-01-30T08:06:36.386Z,27.27
2019-01-30T08:09:08.760Z,26.33
2019-01-30T08:11:40.643Z,24.10
2019-01-30T08:14:09.528Z,21.43
2019-01-30T08:16:38.514Z,18.53
2019-01-30T08:19:07.911Z,25.33
2019-01-30T08:21:36.912Z,22.10
2019-01-30T08:24:06.198Z,24.90
2019-01-30T08:26:35.524Z,27.20
2019-01-30T08:29:04.829Z,21.67
2019-01-30T08:31:33.871Z,20.60
2019-01-30T08:34:02.830Z,28.53
2019-01-30T08:36:37.491Z,23.07
2019-01-30T08:39:08.909Z,22.37
2019-01-30T08:41:37.846Z,28.20
2019-01-30T08:44:06.874Z,22.90
2019-01-30T08:46:35.728Z,40.13
2019-01-30T08:49:05.082Z,34.23
2019-01-30T08:51:34.493Z,19.70
2019-01-30T08:54:03.379Z,23.17
2019-01-30T08:56:38.735Z,35.10
2019-01-30T08:59:05.723Z,22.50
2019-01-30T09:01:33.803Z,21.90
2019-01-30T09:04:02.914Z,29.70
2019-01-30T09:06:32.213Z,21.33
2019-01-30T09:09:01.596Z,17.33
2019-01-30T09:11:30.788Z,19.37
2019-01-30T09:13:59.776Z,17.00
2019-01-30T09:16:29.295Z,26.43
2019-01-30T09:19:00.354Z,20.00
2019-01-30T09:21:29.430Z,23.83
2019-01-30T09:23:58.392Z,24.30
2019-01-30T09:26:27.341Z,27.73
2019-01-30T09:28:57.248Z,21.80
2019-01-30T09:31:26.083Z,24.33
2019-01-30T09:33:54.972Z,19.63
2019-01-30T09:36:23.938Z,22.40
2019-01-30T09:39:06.961Z,23.13
2019-01-30T09:41:36.279Z,24.60
2019-01-30T09:44:05.270Z,21.93
2019-01-30T09:46:34.046Z,23.23
2019-01-30T09:49:03.120Z,24.27
2019-01-30T09:51:33.123Z,41.93
2019-01-30T09:54:02.153Z,20.77
2019-01-30T09:56:31.139Z,29.80
2019-01-30T09:59:00.251Z,16.47
2019-01-30T10:01:29.384Z,20.20
2019-01-30T10:03:58.486Z,18.60
2019-01-30T10:06:27.314Z,24.10
2019-01-30T10:08:56.414Z,24.97
2019-01-30T10:11:25.203Z,19.47
2019-01-30T10:13:54.005Z,20.30
2019-01-30T10:16:24.025Z,35.13
2019-01-30T10:18:53.771Z,23.93
2019-01-30T10:23:56.690Z,24.37
2019-01-30T10:26:25.510Z,30.40
2019-01-30T10:28:54.418Z,41.87
2019-01-30T10:31:23.242Z,22.63
2019-01-30T10:33:52.195Z,17.20
2019-01-30T10:36:21.267Z,26.13
2019-01-30T10:38:50.224Z,41.67
2019-01-30T10:41:19.134Z,36.83
2019-01-30T10:43:49.566Z,21.80
2019-01-30T10:46:18.629Z,29.67
2019-01-30T10:48:47.443Z,33.83
2019-01-30T10:51:19.294Z,21.73
2019-01-30T10:53:48.337Z,25.43
2019-01-30T10:56:17.633Z,22.17
2019-01-30T10:58:47.485Z,33.77
2019-01-30T11:01:16.579Z,21.60
2019-01-30T11:03:45.460Z,26.60
2019-01-30T11:06:14.332Z,24.95
2019-01-30T11:08:45.629Z,25.60
2019-01-30T11:11:14.490Z,26.43
2019-01-30T11:13:43.387Z,28.63
2019-01-30T11:16:12.806Z,52.53
2019-01-30T11:18:41.764Z,19.83
2019-01-30T11:21:10.663Z,22.20
2019-01-30T11:23:40.003Z,26.20
2019-01-30T11:26:09.047Z,33.23
2019-01-30T11:28:37.918Z,24.63
2019-01-30T11:31:10.352Z,20.90
2019-01-30T11:33:39.496Z,28.27
2019-01-30T11:36:12.227Z,20.23
2019-01-30T11:38:41.087Z,30.93
2019-01-30T11:41:09.902Z,21.87
2019-01-30T11:43:38.947Z,18.43
2019-01-30T11:46:07.912Z,22.13
2019-01-30T11:48:37.179Z,20.30
2019-01-30T11:51:06.161Z,24.83
2019-01-30T11:53:34.967Z,23.03
2019-01-30T11:56:04.127Z,25.50
2019-01-30T11:58:33.129Z,16.70
2019-01-30T12:01:03.673Z,23.83
2019-01-30T12:03:32.808Z,27.13
2019-01-30T12:06:02.403Z,30.00
2019-01-30T12:08:31.261Z,31.93
2019-01-30T12:11:00.519Z,31.90
2019-01-30T12:13:29.890Z,31.33
2019-01-30T12:15:58.849Z,42.43
2019-01-30T12:18:27.819Z,31.63
2019-01-30T12:20:57.048Z,32.20
2019-01-30T12:23:26.298Z,23.87
2019-01-30T12:25:55.509Z,24.80
2019-01-30T12:28:24.400Z,21.87
2019-01-30T12:30:54.230Z,22.37
2019-01-30T12:33:23.232Z,20.33
2019-01-30T12:35:52.745Z,18.53
2019-01-30T12:38:21.859Z,30.57
2019-01-30T12:40:50.666Z,23.50
2019-01-30T12:43:19.621Z,40.77
2019-01-30T12:45:48.471Z,24.00
2019-01-30T12:48:17.798Z,33.17
2019-01-30T12:50:46.599Z,28.37
2019-01-30T12:53:16.599Z,22.33
2019-01-30T12:55:45.629Z,31.70
2019-01-30T12:58:14.500Z,26.60
2019-01-30T13:00:44.287Z,24.93
2019-01-30T13:03:13.166Z,20.40
2019-01-30T13:05:42.062Z,25.63
2019-01-30T13:08:10.993Z,21.93
2019-01-30T13:10:39.926Z,29.77
2019-01-30T13:13:09.204Z,28.50
2019-01-30T13:15:38.150Z,30.77
2019-01-30T13:18:17.638Z,22.02
2019-01-30T13:20:38.211Z,23.30
2019-01-30T13:23:07.283Z,23.87
2019-01-30T13:25:36.600Z,23.13
2019-01-30T13:28:06.783Z,22.83
2019-01-30T13:30:38.080Z,24.83
2019-01-30T13:33:08.922Z,31.33
2019-01-30T13:35:37.898Z,36.30
2019-01-30T13:38:07.420Z,36.27
2019-01-30T13:40:38.110Z,29.30
2019-01-30T13:43:07.745Z,32.53
2019-01-30T13:45:36.689Z,33.13
2019-01-30T13:48:18.206Z,36.33
2019-01-30T13:50:47.681Z,40.73
2019-01-30T13:53:16.650Z,41.97
2019-01-30T13:55:45.573Z,35.67
2019-01-30T13:58:15.020Z,38.40
2019-01-30T14:00:44.118Z,39.23
2019-01-30T14:03:13.598Z,39.87
2019-01-30T14:05:42.528Z,34.20
2019-01-30T14:08:12.694Z,37.60
2019-01-30T14:10:42.459Z,46.80
2019-01-30T14:13:11.612Z,47.43
2019-01-30T14:15:40.601Z,36.37
2019-01-30T14:18:09.896Z,34.67
2019-01-30T14:20:38.788Z,39.03
2019-01-30T14:23:08.292Z,37.90
2019-01-30T14:25:37.324Z,41.73
2019-01-30T14:28:06.393Z,53.57
2019-01-30T14:30:37.881Z,45.13
2019-01-30T14:33:07.372Z,47.73
2019-01-30T14:35:44.093Z,35.60
2019-01-30T14:38:13.078Z,38.33
2019-01-30T14:40:42.458Z,40.40
2019-01-30T14:43:11.375Z,41.90
2019-01-30T14:45:40.289Z,44.70
2019-01-30T14:48:09.479Z,46.67
2019-01-30T14:50:39.513Z,37.97
2019-01-30T14:53:08.444Z,37.90
2019-01-30T14:55:37.361Z,31.60
2019-01-30T14:58:07.828Z,40.73
2019-01-30T15:00:36.813Z,37.53
2019-01-30T15:03:06.607Z,35.40
2019-01-30T15:05:35.965Z,40.37
2019-01-30T15:08:05.409Z,32.90
2019-01-30T15:10:34.525Z,35.57
2019-01-30T15:13:04.456Z,34.43
2019-01-30T15:15:33.433Z,33.20
2019-01-30T15:18:03.249Z,42.23
2019-01-30T15:20:34.129Z,35.70
2019-01-30T15:23:03.603Z,34.23
2019-01-30T15:25:33.166Z,32.50
2019-01-30T15:28:02.279Z,30.17
2019-01-30T15:30:50.488Z,38.53
2019-01-30T15:33:19.985Z,33.33
2019-01-30T15:35:49.090Z,35.40
2019-01-30T15:38:20.866Z,30.30
2019-01-30T15:40:49.776Z,27.80
2019-01-30T15:43:18.572Z,35.93
2019-01-30T15:45:48.021Z,36.03
2019-01-30T15:48:17.816Z,32.60
2019-01-30T15:50:46.650Z,38.10
2019-01-30T15:53:18.500Z,41.60
2019-01-30T15:55:47.445Z,39.37
2019-01-30T15:58:16.727Z,45.47
2019-01-30T16:01:00.671Z,37.93
2019-01-30T16:03:29.580Z,40.90
2019-01-30T16:05:59.000Z,40.13
2019-01-30T16:08:28.011Z,36.57
2019-01-30T16:10:56.890Z,48.13
2019-01-30T16:13:25.721Z,45.27
2019-01-30T16:16:00.608Z,44.33
2019-01-30T16:18:29.656Z,45.53
2019-01-30T16:20:58.707Z,44.70
2019-01-30T16:23:27.689Z,52.80
2019-01-30T16:25:57.859Z,54.90
2019-01-30T16:28:27.623Z,64.37
2019-01-30T16:30:56.603Z,63.67
2019-01-30T16:33:25.622Z,50.43
2019-01-30T16:35:56.292Z,53.30
2019-01-30T16:38:25.230Z,68.87
2019-01-30T16:40:54.508Z,56.73
2019-01-30T16:43:23.849Z,61.77
2019-01-30T16:45:52.790Z,61.47
2019-01-30T16:48:22.145Z,70.30
2019-01-30T16:50:51.232Z,67.23
2019-01-30T16:53:20.339Z,68.40
2019-01-30T16:55:50.009Z,74.33
2019-01-30T16:58:18.883Z,65.00
2019-01-30T17:00:48.018Z,85.83
2019-01-30T17:03:17.271Z,71.73
2019-01-30T17:05:46.502Z,72.93
2019-01-30T17:08:15.693Z,89.03
2019-01-30T17:10:45.128Z,80.50
2019-01-30T17:13:14.355Z,80.73
2019-01-30T17:15:44.191Z,85.17
2019-01-30T17:18:14.708Z,76.43
2019-01-30T17:20:43.839Z,82.13
2019-01-30T17:23:12.988Z,85.73
2019-01-30T17:25:42.141Z,81.07
2019-01-30T17:28:11.287Z,79.50
2019-01-30T17:30:49.832Z,72.30
2019-01-30T17:33:18.815Z,70.47
2019-01-30T17:35:48.048Z,73.10
2019-01-30T17:38:17.047Z,72.90
2019-01-30T17:40:46.450Z,74.77
2019-01-30T17:43:15.276Z,83.03
2019-01-30T17:45:44.846Z,75.67
2019-01-30T17:48:14.705Z,61.40
2019-01-30T17:50:44.063Z,66.33
2019-01-30T17:53:12.950Z,61.33
2019-01-30T17:55:42.146Z,65.37
2019-01-30T17:58:11.572Z,49.87
2019-01-30T18:01:10.210Z,51.47
2019-01-30T18:03:39.231Z,44.13
2019-01-30T18:06:08.231Z,59.00
2019-01-30T18:08:37.481Z,53.73
2019-01-30T18:11:06.372Z,48.60
2019-01-30T18:13:35.691Z,52.63
2019-01-30T18:16:05.011Z,50.17
2019-01-30T18:18:34.123Z,54.57
2019-01-30T18:21:03.310Z,46.27
2019-01-30T18:23:32.278Z,42.60
2019-01-30T18:26:01.457Z,55.63
2019-01-30T18:28:30.292Z,54.40
2019-01-30T18:30:59.096Z,60.27
2019-01-30T18:33:28.221Z,52.87
2019-01-30T18:35:57.818Z,52.60
2019-01-30T18:38:26.840Z,48.87
2019-01-30T18:40:55.803Z,51.13
2019-01-30T18:43:24.953Z,50.53
2019-01-30T18:45:53.921Z,48.20
2019-01-30T18:48:22.953Z,47.93
2019-01-30T18:50:52.171Z,49.83
2019-01-30T18:53:21.144Z,45.87
2019-01-30T18:55:49.959Z,51.70
2019-01-30T18:58:19.016Z,48.70
2019-01-30T19:00:47.804Z,50.93
2019-01-30T19:03:18.295Z,42.97
2019-01-30T19:05:47.507Z,54.57
2019-01-30T19:08:16.590Z,47.17
2019-01-30T19:10:45.516Z,47.63
2019-01-30T19:13:14.559Z,51.87
2019-01-30T19:15:43.561Z,51.20
2019-01-30T19:18:14.679Z,52.67
2019-01-30T19:20:45.635Z,48.00
2019-01-30T19:23:14.654Z,45.77
2019-01-30T19:25:43.580Z,42.30
2019-01-30T19:28:12.559Z,45.80
2019-01-30T19:30:41.429Z,47.37
2019-01-30T19:33:11.126Z,43.37
2019-01-30T19:35:40.399Z,44.67
2019-01-30T19:38:09.863Z,42.60
2019-01-30T19:40:38.753Z,50.30
2019-01-30T19:43:08.283Z,46.50
2019-01-30T19:45:37.208Z,43.03
2019-01-30T19:48:07.230Z,40.80
2019-01-30T19:50:36.387Z,40.17
2019-01-30T19:53:06.574Z,42.97
2019-01-30T19:55:35.519Z,38.37
2019-01-30T19:58:04.961Z,39.23
2019-01-30T20:00:36.510Z,32.50
2019-01-30T20:03:08.015Z,38.60
2019-01-30T20:05:37.025Z,38.37
2019-01-30T20:08:06.151Z,33.37
2019-01-30T20:10:35.542Z,37.07
2019-01-30T20:13:05.039Z,43.90
2019-01-30T20:15:34.100Z,39.37
2019-01-30T20:18:03.051Z,28.47
2019-01-30T20:20:32.014Z,39.00
2019-01-30T20:23:01.085Z,35.67
2019-01-30T20:25:32.463Z,38.77
2019-01-30T20:28:01.422Z,34.60
2019-01-30T20:30:34.091Z,37.77
2019-01-30T20:33:03.457Z,35.70
2019-01-30T20:35:32.816Z,36.70
2019-01-30T20:38:01.725Z,34.90
2019-01-30T20:40:30.953Z,29.97
2019-01-30T20:43:00.337Z,30.90
2019-01-30T20:45:33.882Z,26.40
2019-01-30T20:48:00.843Z,33.00
2019-01-30T20:50:30.426Z,29.90
2019-01-30T20:52:59.595Z,30.33
2019-01-30T20:55:29.106Z,48.33
2019-01-30T20:57:58.009Z,40.70
2019-01-30T21:00:29.319Z,33.10
2019-01-30T21:02:58.263Z,34.63
2019-01-30T21:05:27.386Z,27.10
2019-01-30T21:07:56.585Z,36.13
2019-01-30T21:10:34.145Z,36.53
2019-01-30T21:13:03.065Z,35.97
2019-01-30T21:15:31.846Z,29.67
2019-01-30T21:18:00.844Z,35.63
2019-01-30T21:20:30.133Z,25.57
2019-01-30T21:22:59.113Z,32.97
2019-01-30T21:25:28.531Z,20.53
2019-01-30T21:27:58.223Z,24.70
2019-01-30T21:30:32.495Z,26.47
2019-01-30T21:33:01.823Z,29.47
2019-01-30T21:35:30.945Z,26.03
2019-01-30T21:37:59.932Z,28.83
2019-01-30T21:40:29.100Z,23.47
2019-01-30T21:42:58.010Z,30.30
2019-01-30T21:45:27.236Z,26.23
2019-01-30T21:47:56.880Z,27.30
2019-01-30T21:50:25.690Z,20.60
2019-01-30T21:52:54.496Z,23.10
2019-01-30T21:55:24.731Z,32.70
2019-01-30T21:57:53.603Z,21.30
2019-01-30T22:00:27.563Z,33.63
2019-01-30T22:02:56.718Z,36.50
2019-01-30T22:05:28.616Z,28.73
2019-01-30T22:08:00.946Z,30.23
2019-01-30T22:10:29.653Z,32.13
2019-01-30T22:12:58.601Z,23.57
2019-01-30T22:15:27.787Z,33.23
2019-01-30T22:17:56.871Z,24.90
2019-01-30T22:20:26.580Z,16.70
2019-01-30T22:22:56.052Z,17.87
2019-01-30T22:25:25.238Z,19.70
2019-01-30T22:27:54.118Z,22.43
2019-01-30T22:30:25.187Z,18.53
2019-01-30T22:32:54.339Z,14.70
2019-01-30T22:35:23.543Z,26.00
2019-01-30T22:37:52.670Z,24.00
2019-01-30T22:40:22.174Z,18.87
2019-01-30T22:42:51.204Z,24.13
2019-01-30T22:45:20.160Z,28.47
2019-01-30T22:47:49.062Z,19.53
2019-01-30T22:50:19.054Z,17.63
2019-01-30T22:52:48.279Z,17.93
2019-01-30T22:55:19.268Z,23.47
2019-01-30T22:57:50.720Z,20.73
2019-01-30T23:00:54.327Z,23.47
2019-01-30T23:04:10.600Z,23.13
2019-01-30T23:07:09.117Z,29.20
2019-01-30T23:10:21.137Z,23.67
2019-01-30T23:13:27.730Z,22.80
2019-01-30T23:16:24.303Z,24.40
2019-01-30T23:19:17.694Z,25.53
2019-01-30T23:22:00.440Z,18.63
2019-01-30T23:25:05.888Z,19.13
2019-01-30T23:27:50.608Z,16.17
2019-01-30T23:30:51.165Z,18.63
2019-01-30T23:33:45.617Z,20.60
2019-01-30T23:36:31.712Z,17.20
2019-01-30T23:39:22.462Z,21.93
2019-01-30T23:42:19.558Z,14.30
2019-01-30T23:45:14.531Z,12.10
2019-01-30T23:48:08.994Z,20.37
2019-01-30T23:50:47.564Z,16.07
2019-01-30T23:53:59.539Z,17.10
2019-01-30T23:56:46.714Z,15.73
2019-01-30T23:59:49.286Z,16.90
